Time;durP1;ratioP1;P1;durP2;ratioP2;P2;SDS_P1;SDS_P2;PMS_P1;PMS_P2;Temp;Humidity;BMP_temperature;BMP_pressure;BME280_temperature;BME280_humidity;BME280_pressure;Samples;Min_cycle;Max_cycle;Signal;HPM_P1;HPM_P2
2022/07/12 00:02:06;;;;;;;1.38;0.50;;;14.60;99.90;;;;;;5030848;28;20044;-74
2022/07/12 00:04:32;;;;;;;1.48;0.40;;;14.50;99.90;;;;;;5028847;28;20032;-74
2022/07/12 00:06:57;;;;;;;0.80;0.43;;;14.50;99.90;;;;;;5030696;28;20179;-74
2022/07/12 00:09:23;;;;;;;0.70;0.40;;;14.50;99.90;;;;;;5013164;28;20113;-74
2022/07/12 00:11:49;;;;;;;0.80;0.40;;;14.50;99.90;;;;;;5025830;28;20030;-74
2022/07/12 00:14:15;;;;;;;1.15;0.50;;;14.40;99.90;;;;;;5028976;28;20029;-74
2022/07/12 00:16:40;;;;;;;0.80;0.40;;;14.40;99.90;;;;;;5030917;28;20116;-74
2022/07/12 00:19:06;;;;;;;0.82;0.40;;;14.40;99.90;;;;;;5022352;28;20397;-75
2022/07/12 00:21:32;;;;;;;0.82;0.40;;;14.40;99.90;;;;;;5024535;28;20026;-74
2022/07/12 00:23:58;;;;;;;1.00;0.40;;;14.20;99.90;;;;;;5021531;28;20034;-75
2022/07/12 00:26:24;;;;;;;0.70;0.40;;;14.20;99.90;;;;;;5029249;28;20040;-74
2022/07/12 00:28:50;;;;;;;0.70;0.40;;;14.20;99.90;;;;;;5027176;28;20378;-74
2022/07/12 00:31:16;;;;;;;1.00;0.50;;;14.20;99.90;;;;;;5019701;28;20038;-74
2022/07/12 00:33:41;;;;;;;0.70;0.38;;;14.20;99.90;;;;;;5020356;28;20029;-74
2022/07/12 00:36:07;;;;;;;0.95;0.45;;;14.20;99.90;;;;;;5019781;28;20541;-73
2022/07/12 00:38:33;;;;;;;0.70;0.40;;;14.10;99.90;;;;;;5002288;28;20052;-74
2022/07/12 00:40:59;;;;;;;0.88;0.38;;;14.10;99.90;;;;;;5028618;28;20030;-73
2022/07/12 00:43:25;;;;;;;0.90;0.47;;;14.00;99.90;;;;;;5018686;28;20029;-74
2022/07/12 00:45:50;;;;;;;2.58;0.40;;;14.00;99.90;;;;;;5025233;28;20045;-74
2022/07/12 00:48:17;;;;;;;0.70;0.38;;;14.00;99.90;;;;;;4997031;28;20037;-74
2022/07/12 00:50:47;;;;;;;0.75;0.40;;;14.00;99.90;;;;;;5012574;28;20032;-74
2022/07/12 00:53:16;;;;;;;0.70;0.30;;;14.00;99.90;;;;;;5035257;28;20026;-74
2022/07/12 00:55:42;;;;;;;0.70;0.30;;;14.00;99.90;;;;;;5016987;28;20033;-73
2022/07/12 00:58:08;;;;;;;0.80;0.30;;;14.00;99.90;;;;;;5019849;28;20041;-74
2022/07/12 01:00:34;;;;;;;0.80;0.40;;;13.90;99.90;;;;;;5003902;28;20043;-74
2022/07/12 01:03:02;;;;;;;0.60;0.30;;;13.90;99.90;;;;;;5002036;28;20029;-74
2022/07/12 01:05:28;;;;;;;0.93;0.30;;;13.80;99.90;;;;;;5003105;28;20658;-73
2022/07/12 01:07:55;;;;;;;0.50;0.30;;;13.80;99.90;;;;;;5012213;28;20044;-74
2022/07/12 01:10:21;;;;;;;0.70;0.38;;;13.80;99.90;;;;;;5018026;28;21203;-73
2022/07/12 01:12:47;;;;;;;0.70;0.35;;;13.80;99.90;;;;;;5001862;28;20507;-74
2022/07/12 01:15:13;;;;;;;0.90;0.30;;;13.70;99.90;;;;;;5019874;28;20413;-74
2022/07/12 01:17:39;;;;;;;0.68;0.30;;;13.70;99.90;;;;;;5019896;28;20033;-75
2022/07/12 01:20:06;;;;;;;1.30;0.40;;;13.70;99.90;;;;;;5019308;28;20080;-74
2022/07/12 01:22:36;;;;;;;0.60;0.28;;;13.70;99.90;;;;;;5018721;28;20048;-75
2022/07/12 01:25:04;;;;;;;0.63;0.35;;;13.70;99.90;;;;;;5014642;28;20204;-73
2022/07/12 01:27:30;;;;;;;1.23;0.30;;;13.60;99.90;;;;;;5019994;28;21845;-74
2022/07/12 01:29:56;;;;;;;0.98;0.30;;;13.70;99.90;;;;;;5019207;28;20037;-73
2022/07/12 01:32:26;;;;;;;0.47;0.30;;;13.50;99.90;;;;;;5011433;28;20402;-73
2022/07/12 01:34:54;;;;;;;0.80;0.38;;;13.50;99.90;;;;;;5019223;28;20040;-74
2022/07/12 01:37:22;;;;;;;0.60;0.22;;;13.50;99.90;;;;;;5017972;28;20108;-74
2022/07/12 01:39:52;;;;;;;1.30;0.30;;;13.50;99.90;;;;;;5015869;28;20037;-74
2022/07/12 01:42:18;;;;;;;;;;;13.50;99.90;;;;;;5025006;28;20032;-74
2022/07/12 01:44:44;;;;;;;0.80;0.30;;;13.40;99.90;;;;;;5019376;28;19917;-74
2022/07/12 01:47:10;;;;;;;0.50;0.30;;;13.40;99.90;;;;;;5018253;28;20500;-73
2022/07/12 01:49:35;;;;;;;0.70;0.30;;;13.50;99.90;;;;;;5019055;28;20374;-73
2022/07/12 01:52:01;;;;;;;0.68;0.32;;;13.40;99.90;;;;;;5028705;28;20033;-74
2022/07/12 01:54:27;;;;;;;0.80;0.38;;;13.30;99.90;;;;;;5018092;28;20045;-73
2022/07/12 01:56:54;;;;;;;0.85;0.30;;;13.40;99.90;;;;;;5001577;28;20044;-74
2022/07/12 01:59:20;;;;;;;0.95;0.50;;;13.30;99.90;;;;;;5018403;28;20037;-74
2022/07/12 02:01:46;;;;;;;1.10;0.50;;;13.30;99.90;;;;;;5002078;28;20061;-74
2022/07/12 02:04:15;;;;;;;0.93;0.40;;;13.20;99.90;;;;;;5010790;28;20029;-74
2022/07/12 02:06:43;;;;;;;1.08;0.50;;;13.20;99.90;;;;;;5017824;28;20543;-75
2022/07/12 02:09:09;;;;;;;1.38;0.50;;;13.20;99.90;;;;;;5018798;28;20030;-73
2022/07/12 02:11:34;;;;;;;1.05;0.40;;;13.20;99.90;;;;;;5019668;28;20457;-74
2022/07/12 02:14:00;;;;;;;0.80;0.40;;;13.30;99.90;;;;;;5000755;28;20033;-74
2022/07/12 02:16:25;;;;;;;0.75;0.40;;;13.20;99.90;;;;;;5019207;28;20029;-74
2022/07/12 02:18:51;;;;;;;1.20;0.50;;;13.20;99.90;;;;;;5016802;28;20033;-74
2022/07/12 02:21:17;;;;;;;1.27;0.50;;;13.20;99.90;;;;;;5017256;28;20033;-73
2022/07/12 02:23:43;;;;;;;1.02;0.45;;;13.10;99.90;;;;;;5005917;28;20026;-73
2022/07/12 02:26:08;;;;;;;1.85;0.40;;;13.10;99.90;;;;;;5001457;28;20397;-72
2022/07/12 02:28:34;;;;;;;2.10;0.60;;;13.10;99.90;;;;;;5017484;28;20033;-74
2022/07/12 02:30:59;;;;;;;1.00;0.60;;;13.10;99.90;;;;;;5016666;28;20541;-73
2022/07/12 02:33:25;;;;;;;1.33;0.50;;;13.00;99.90;;;;;;5018620;28;20025;-73
2022/07/12 02:35:51;;;;;;;1.35;0.55;;;13.00;99.90;;;;;;5010127;28;20386;-74
2022/07/12 02:38:17;;;;;;;0.90;0.52;;;13.00;99.90;;;;;;5011775;28;20053;-73
2022/07/12 02:40:54;;;;;;;0.77;0.40;;;13.00;99.90;;;;;;5001160;28;20037;-74
2022/07/12 02:43:29;;;;;;;1.55;0.52;;;12.90;99.90;;;;;;5017333;28;20393;-73
2022/07/12 02:46:09;;;;;;;0.75;0.50;;;12.90;99.90;;;;;;5018162;28;20036;-74
2022/07/12 02:48:36;;;;;;;1.33;0.70;;;12.90;99.90;;;;;;4999857;28;20037;-75
2022/07/12 02:51:03;;;;;;;1.38;0.60;;;12.90;99.90;;;;;;5002618;28;20053;-74
2022/07/12 02:53:29;;;;;;;1.25;0.57;;;12.90;99.90;;;;;;5017531;28;20034;-74
2022/07/12 02:55:54;;;;;;;1.30;0.45;;;12.90;99.90;;;;;;5027346;28;20048;-74
2022/07/12 02:58:20;;;;;;;1.30;0.60;;;12.90;99.90;;;;;;5000180;28;20033;-74
2022/07/12 03:00:46;;;;;;;0.90;0.50;;;12.80;99.90;;;;;;5017080;28;20469;-73
2022/07/12 03:03:13;;;;;;;1.02;0.50;;;12.80;99.90;;;;;;5017750;28;20025;-74
2022/07/12 03:05:39;;;;;;;1.35;0.57;;;12.80;99.90;;;;;;5011399;28;20429;-74
2022/07/12 03:08:06;;;;;;;1.52;0.50;;;12.80;99.90;;;;;;5000271;28;20045;-74
2022/07/12 03:10:32;;;;;;;0.93;0.50;;;12.80;99.90;;;;;;5016399;28;20387;-74
2022/07/12 03:12:57;;;;;;;2.58;0.50;;;12.70;99.90;;;;;;5015075;28;20044;-73
2022/07/12 03:15:23;;;;;;;1.05;0.60;;;12.70;99.90;;;;;;5017874;28;20022;-74
2022/07/12 03:17:49;;;;;;;1.05;0.60;;;12.70;99.90;;;;;;5017336;28;20473;-74
2022/07/12 03:20:14;;;;;;;0.93;0.50;;;12.70;99.90;;;;;;5000932;28;20375;-74
2022/07/12 03:22:47;;;;;;;1.23;0.50;;;12.60;99.90;;;;;;5017291;28;20574;-73
2022/07/12 03:25:13;;;;;;;1.00;0.40;;;12.70;99.90;;;;;;5018685;28;20034;-74
2022/07/12 03:27:40;;;;;;;0.70;0.40;;;12.70;99.90;;;;;;5014996;28;20037;-74
2022/07/12 03:30:06;;;;;;;1.05;0.40;;;12.60;99.90;;;;;;5015890;28;20075;-74
2022/07/12 03:32:32;;;;;;;0.75;0.40;;;12.60;99.90;;;;;;5001227;28;20481;-74
2022/07/12 03:34:58;;;;;;;0.70;0.40;;;12.60;99.90;;;;;;5016742;28;20075;-74
2022/07/12 03:37:23;;;;;;;0.82;0.40;;;12.60;99.90;;;;;;5018090;28;20049;-75
2022/07/12 03:39:49;;;;;;;1.00;0.50;;;12.50;99.90;;;;;;4999443;28;20052;-74
2022/07/12 03:42:15;;;;;;;0.82;0.40;;;12.50;99.90;;;;;;5016115;28;20478;-73
2022/07/12 03:44:41;;;;;;;1.00;0.40;;;12.50;99.90;;;;;;5016017;28;20056;-74
2022/07/12 03:47:06;;;;;;;0.80;0.40;;;12.50;99.90;;;;;;4999021;28;20095;-74
2022/07/12 03:49:32;;;;;;;2.75;0.50;;;12.50;99.90;;;;;;5017318;28;20017;-73
2022/07/12 03:51:58;;;;;;;1.02;0.40;;;12.50;99.90;;;;;;5015153;28;20116;-74
2022/07/12 03:54:24;;;;;;;1.20;0.40;;;12.50;99.90;;;;;;5015422;28;20037;-74
2022/07/12 03:59:34;;;;;;;0.70;0.40;;;12.50;99.90;;;;;;5017354;28;20049;-73
2022/07/12 04:02:01;;;;;;;1.52;0.40;;;12.50;99.90;;;;;;5016896;28;20053;-73
2022/07/12 04:04:27;;;;;;;0.90;0.40;;;12.50;99.90;;;;;;5000135;28;20145;-74
2022/07/12 04:06:53;;;;;;;0.80;0.40;;;12.50;99.90;;;;;;5016517;28;20045;-73
2022/07/12 04:09:19;;;;;;;0.80;0.40;;;12.50;99.90;;;;;;5005968;28;20060;-73
2022/07/12 04:11:44;;;;;;;0.90;0.43;;;12.60;99.90;;;;;;5018863;28;20029;-74
2022/07/12 04:14:10;;;;;;;1.00;0.50;;;12.60;99.90;;;;;;5019302;28;20025;-74
2022/07/12 04:16:35;;;;;;;0.80;0.40;;;12.60;99.90;;;;;;5015019;28;20025;-73
2022/07/12 04:19:01;;;;;;;1.95;0.40;;;12.60;99.90;;;;;;5019072;28;20052;-74
2022/07/12 04:21:27;;;;;;;0.85;0.40;;;12.60;99.90;;;;;;5021242;28;20033;-74
2022/07/12 04:23:53;;;;;;;0.60;0.30;;;12.60;99.90;;;;;;5020166;28;20064;-74
2022/07/12 04:26:18;;;;;;;0.60;0.30;;;12.60;99.90;;;;;;5005093;28;20054;-74
2022/07/12 04:28:44;;;;;;;0.90;0.40;;;12.70;99.90;;;;;;5019025;28;20107;-73
2022/07/12 04:31:09;;;;;;;0.70;0.30;;;12.80;99.90;;;;;;4998581;28;20579;-74
2022/07/12 04:33:36;;;;;;;0.68;0.40;;;13.00;99.90;;;;;;5011122;28;20045;-74
2022/07/12 04:36:02;;;;;;;0.80;0.40;;;13.10;99.90;;;;;;5035526;28;20063;-74
2022/07/12 04:38:27;;;;;;;0.77;0.40;;;13.20;99.90;;;;;;5019036;28;20517;-74
2022/07/12 04:40:53;;;;;;;1.38;0.40;;;13.40;99.90;;;;;;5018928;28;20517;-75
2022/07/12 04:43:19;;;;;;;0.70;0.45;;;13.40;99.90;;;;;;5018979;28;20026;-74
2022/07/12 04:45:44;;;;;;;1.40;0.60;;;13.50;99.90;;;;;;5019612;28;20038;-74
2022/07/12 04:48:13;;;;;;;0.90;0.50;;;13.60;99.90;;;;;;5034226;28;20474;-74
2022/07/12 04:50:39;;;;;;;1.38;0.43;;;13.70;99.90;;;;;;5018259;28;20033;-74
2022/07/12 04:53:05;;;;;;;1.00;0.50;;;13.90;99.90;;;;;;5019175;28;20037;-74
2022/07/12 04:55:30;;;;;;;1.30;0.50;;;14.00;99.90;;;;;;5002246;28;20036;-74
2022/07/12 04:57:56;;;;;;;2.50;0.47;;;14.20;99.90;;;;;;5019926;28;20045;-75
2022/07/12 05:00:22;;;;;;;1.83;0.50;;;14.30;99.90;;;;;;5018893;28;20116;-74
2022/07/12 05:02:48;;;;;;;1.20;0.60;;;14.40;99.90;;;;;;5018126;28;20378;-74
2022/07/12 05:05:14;;;;;;;2.03;0.60;;;14.50;99.90;;;;;;5018862;28;20075;-75
2022/07/12 05:07:40;;;;;;;0.93;0.50;;;14.60;99.90;;;;;;5022092;28;20037;-74
2022/07/12 05:10:06;;;;;;;1.90;0.43;;;14.80;99.90;;;;;;4998084;28;20430;-74
2022/07/12 05:12:34;;;;;;;0.80;0.43;;;14.90;99.90;;;;;;5017544;28;20259;-75
2022/07/12 05:14:59;;;;;;;0.95;0.40;;;15.00;99.90;;;;;;5017392;28;20034;-74
2022/07/12 05:17:25;;;;;;;1.13;0.68;;;15.00;99.90;;;;;;5011982;28;20051;-74
2022/07/12 05:19:51;;;;;;;0.90;0.50;;;15.10;99.90;;;;;;5019213;28;20029;-75
2022/07/12 05:22:17;;;;;;;1.60;0.60;;;15.20;99.90;;;;;;5018590;28;20029;-75
2022/07/12 05:24:42;;;;;;;1.58;0.60;;;15.40;99.90;;;;;;5001383;28;20044;-74
2022/07/12 05:27:08;;;;;;;1.20;0.60;;;15.50;99.90;;;;;;4991152;28;20392;-74
2022/07/12 05:29:33;;;;;;;1.00;0.60;;;15.60;99.90;;;;;;5000657;28;20053;-75
2022/07/12 05:32:01;;;;;;;0.93;0.60;;;15.80;99.90;;;;;;5000960;28;20608;-75
2022/07/12 05:34:27;;;;;;;1.02;0.63;;;16.00;99.90;;;;;;5018922;28;20041;-75
2022/07/12 05:36:53;;;;;;;1.23;0.70;;;16.10;99.90;;;;;;4999948;28;20418;-75
2022/07/12 05:39:18;;;;;;;1.50;0.70;;;16.20;99.90;;;;;;5016061;28;20049;-74
2022/07/12 05:41:46;;;;;;;1.35;1.00;;;16.30;99.90;;;;;;5018679;28;20543;-74
2022/07/12 05:44:12;;;;;;;2.03;1.60;;;16.30;99.90;;;;;;5017130;28;20469;-75
2022/07/12 05:46:39;;;;;;;1.60;1.20;;;16.50;99.90;;;;;;5014876;28;20064;-75
2022/07/12 05:49:05;;;;;;;1.85;0.90;;;16.80;99.90;;;;;;5018077;28;20042;-74
2022/07/12 05:54:14;;;;;;;1.35;0.88;;;17.20;99.90;;;;;;5018790;28;20033;-74
2022/07/12 05:56:40;;;;;;;1.40;1.08;;;17.60;99.90;;;;;;5009993;28;20072;-74
2022/07/12 05:59:06;;;;;;;3.42;0.93;;;17.80;99.90;;;;;;5001591;28;20021;-74
2022/07/12 06:01:31;;;;;;;1.67;0.95;;;17.70;99.90;;;;;;5017675;28;20029;-74
2022/07/12 06:03:57;;;;;;;1.38;1.00;;;17.70;99.90;;;;;;5017778;28;20013;-74
2022/07/12 06:06:22;;;;;;;2.22;0.98;;;17.80;99.90;;;;;;5016721;28;20544;-74
2022/07/12 06:08:48;;;;;;;2.75;1.05;;;17.90;99.90;;;;;;5017360;28;20033;-74
2022/07/12 06:11:14;;;;;;;1.95;1.48;;;18.00;99.90;;;;;;4997628;28;20904;-75
2022/07/12 06:13:39;;;;;;;2.38;1.50;;;18.10;99.90;;;;;;5015075;28;20792;-75
2022/07/12 06:16:05;;;;;;;2.75;1.33;;;18.40;99.90;;;;;;5010397;28;20090;-75
2022/07/12 06:18:34;;;;;;;1.88;1.17;;;18.80;99.90;;;;;;5016019;28;20053;-75
2022/07/12 06:20:59;;;;;;;3.70;2.50;;;19.10;99.90;;;;;;5016206;28;20040;-74
2022/07/12 06:23:25;;;;;;;2.60;1.25;;;19.40;99.90;;;;;;5016689;28;20030;-74
2022/07/12 06:25:51;;;;;;;3.35;1.60;;;19.70;99.90;;;;;;5016708;28;20081;-75
2022/07/12 06:28:17;;;;;;;1.65;1.25;;;19.90;99.90;;;;;;5015833;28;20520;-74
2022/07/12 06:30:42;;;;;;;1.90;1.30;;;20.10;99.90;;;;;;5014609;28;20061;-74
2022/07/12 06:33:08;;;;;;;2.83;1.42;;;20.20;99.90;;;;;;5016621;28;20033;-75
2022/07/12 06:35:34;;;;;;;3.53;1.45;;;20.10;99.90;;;;;;5017565;28;20029;-74
2022/07/12 06:38:00;;;;;;;2.60;1.80;;;20.00;99.90;;;;;;5010000;28;20064;-74
2022/07/12 06:40:25;;;;;;;4.55;1.45;;;19.90;99.90;;;;;;5017043;28;20021;-75
2022/07/12 06:42:51;;;;;;;1.55;1.05;;;19.90;99.90;;;;;;5017761;28;20029;-75
2022/07/12 06:45:17;;;;;;;2.58;1.60;;;20.00;99.90;;;;;;5017251;28;20021;-75
2022/07/12 06:47:44;;;;;;;2.88;1.35;;;20.00;99.90;;;;;;5016406;28;20758;-75
2022/07/12 06:50:09;;;;;;;2.70;1.30;;;20.30;99.90;;;;;;5017068;28;20037;-75
2022/07/12 06:52:35;;;;;;;1.73;1.23;;;20.60;99.90;;;;;;5017286;28;20315;-75
2022/07/12 06:55:01;;;;;;;1.67;1.10;;;20.60;99.90;;;;;;5008162;28;20021;-75
2022/07/12 06:57:29;;;;;;;1.55;0.85;;;20.50;99.90;;;;;;5018149;28;20033;-74
2022/07/12 06:59:58;;;;;;;1.63;1.23;;;20.80;99.90;;;;;;5000794;28;20042;-76
2022/07/12 07:02:24;;;;;;;1.15;0.85;;;21.30;99.90;;;;;;5016554;28;20026;-76
2022/07/12 07:04:50;;;;;;;1.02;0.63;;;21.70;99.90;;;;;;4999968;28;20659;-75
2022/07/12 07:07:15;;;;;;;1.05;0.65;;;21.90;99.90;;;;;;5017482;28;20041;-74
2022/07/12 07:09:41;;;;;;;1.50;1.20;;;22.10;99.90;;;;;;5015906;28;20047;-75
2022/07/12 07:12:07;;;;;;;1.67;0.95;;;22.30;99.90;;;;;;5016487;28;20041;-74
2022/07/12 07:14:33;;;;;;;1.48;1.00;;;22.50;99.90;;;;;;5017090;28;20045;-75
2022/07/12 07:16:59;;;;;;;2.00;0.90;;;22.50;99.90;;;;;;5014814;28;20037;-74
2022/07/12 07:19:26;;;;;;;1.45;0.85;;;22.40;99.90;;;;;;5016231;28;20298;-75
2022/07/12 07:21:53;;;;;;;1.42;0.70;;;22.40;99.90;;;;;;5018109;28;20041;-74
2022/07/12 07:24:20;;;;;;;1.55;0.70;;;22.60;99.90;;;;;;5016771;28;20363;-75
2022/07/12 07:26:45;;;;;;;1.70;0.75;;;23.00;99.90;;;;;;5017134;28;20077;-75
2022/07/12 07:31:55;;;;;;;0.77;0.45;;;23.20;99.90;;;;;;5006466;28;20484;-75
2022/07/12 07:34:22;;;;;;;1.70;0.82;;;23.80;99.90;;;;;;4975005;28;20041;-75
2022/07/12 07:36:47;;;;;;;2.13;0.40;;;23.70;99.90;;;;;;5014457;28;20029;-75
2022/07/12 07:39:13;;;;;;;1.00;0.50;;;24.00;99.90;;;;;;5015631;28;20752;-75
2022/07/12 07:41:39;;;;;;;0.77;0.50;;;24.00;99.90;;;;;;4998486;28;20030;-75
2022/07/12 07:44:05;;;;;;;1.65;0.40;;;24.20;99.90;;;;;;5015931;28;20037;-74
2022/07/12 07:46:31;;;;;;;1.33;0.40;;;24.20;99.90;;;;;;5004381;28;20048;-75
2022/07/12 07:48:56;;;;;;;0.93;0.50;;;24.10;99.90;;;;;;5018807;28;20025;-75
2022/07/12 07:51:22;;;;;;;1.77;0.45;;;24.40;99.90;;;;;;5020546;28;20489;-75
2022/07/12 07:53:47;;;;;;;0.70;0.30;;;24.60;99.90;;;;;;5019726;28;20032;-74
2022/07/12 07:56:13;;;;;;;2.22;0.70;;;24.80;99.90;;;;;;5019953;28;20052;-75
2022/07/12 07:58:39;;;;;;;1.30;0.57;;;24.50;99.90;;;;;;5018981;28;20390;-74
2022/07/12 08:01:05;;;;;;;0.60;0.30;;;24.50;99.90;;;;;;5009386;28;20091;-76
2022/07/12 08:03:30;;;;;;;0.80;0.30;;;24.70;99.90;;;;;;5021144;28;20126;-76
2022/07/12 08:05:58;;;;;;;0.95;0.50;;;24.60;99.90;;;;;;5029527;28;20493;-76
2022/07/12 08:08:24;;;;;;;2.63;0.40;;;24.60;99.90;;;;;;5019797;28;20091;-75
2022/07/12 08:10:50;;;;;;;1.08;0.50;;;24.40;99.90;;;;;;5018619;28;20195;-77
2022/07/12 08:13:16;;;;;;;1.10;0.40;;;24.10;99.90;;;;;;5020566;28;20056;-75
2022/07/12 08:15:42;;;;;;;0.77;0.30;;;24.00;99.90;;;;;;5012477;28;20767;-75
2022/07/12 08:18:08;;;;;;;1.60;0.57;;;23.90;99.90;;;;;;5019456;28;20025;-75
2022/07/12 08:20:33;;;;;;;0.88;0.43;;;24.10;99.90;;;;;;5019164;28;20040;-77
2022/07/12 08:22:59;;;;;;;0.90;0.40;;;24.30;99.90;;;;;;5001649;28;20544;-76
2022/07/12 08:25:25;;;;;;;0.68;0.17;;;24.90;99.90;;;;;;5017748;28;20132;-75
2022/07/12 08:27:51;;;;;;;0.80;0.45;;;24.80;99.90;;;;;;5020336;28;20032;-75
2022/07/12 08:30:16;;;;;;;1.10;0.40;;;24.30;99.90;;;;;;5020176;28;20410;-76
2022/07/12 08:32:46;;;;;;;1.98;0.47;;;24.30;99.90;;;;;;5019507;28;20040;-75
2022/07/12 08:35:12;;;;;;;1.00;0.32;;;23.60;99.90;;;;;;5020169;28;20068;-76
2022/07/12 08:37:38;;;;;;;0.80;0.30;;;23.70;99.90;;;;;;5018347;28;20044;-76
2022/07/12 08:40:05;;;;;;;0.50;0.30;;;24.20;99.90;;;;;;5019822;28;20029;-75
2022/07/12 08:42:31;;;;;;;0.88;0.40;;;24.70;99.90;;;;;;5002322;28;20045;-75
2022/07/12 08:44:57;;;;;;;1.73;0.40;;;25.30;99.90;;;;;;5017566;28;22028;-76
2022/07/12 08:47:23;;;;;;;1.10;0.60;;;25.30;99.90;;;;;;5018161;28;20044;-75
2022/07/12 08:50:12;;;;;;;1.60;0.70;;;25.10;99.90;;;;;;5009298;28;20508;-76
2022/07/12 08:52:44;;;;;;;1.60;0.65;;;25.10;99.90;;;;;;5018395;28;20052;-75
2022/07/12 08:55:36;;;;;;;0.68;0.35;;;25.40;99.90;;;;;;5018529;28;20034;-76
2022/07/12 08:58:14;;;;;;;1.60;0.50;;;25.40;99.90;;;;;;5013747;28;20131;-76
2022/07/12 09:00:40;;;;;;;4.22;0.50;;;25.30;99.90;;;;;;5009471;28;20457;-75
2022/07/12 09:03:06;;;;;;;3.10;0.40;;;25.10;99.90;;;;;;5018254;28;20034;-76
2022/07/12 09:05:34;;;;;;;2.83;0.32;;;24.90;99.90;;;;;;5008347;28;20466;-76
2022/07/12 09:08:06;;;;;;;1.20;0.35;;;25.20;99.90;;;;;;5019252;28;20037;-76
2022/07/12 09:10:53;;;;;;;0.50;0.10;;;25.20;99.90;;;;;;5017707;28;20474;-77
2022/07/12 09:13:19;;;;;;;2.47;0.20;;;25.70;99.90;;;;;;5012104;28;20036;-76
2022/07/12 09:15:48;;;;;;;2.40;0.40;;;25.40;99.90;;;;;;5001380;28;20433;-75
2022/07/12 09:18:15;;;;;;;1.40;0.50;;;25.10;99.90;;;;;;5013359;28;20057;-76
2022/07/12 09:20:43;;;;;;;2.30;0.25;;;24.50;99.90;;;;;;5017529;28;20049;-76
2022/07/12 09:23:12;;;;;;;1.17;0.40;;;25.40;99.90;;;;;;4990731;28;20029;-75
2022/07/12 09:25:43;;;;;;;0.70;0.20;;;25.80;99.90;;;;;;5017759;28;20033;-76
2022/07/12 09:28:08;;;;;;;0.60;0.20;;;25.70;99.90;;;;;;5012332;28;20331;-77
2022/07/12 09:30:38;;;;;;;1.13;0.10;;;26.50;99.90;;;;;;5018646;28;20053;-76
2022/07/12 09:36:09;;;;;;;0.70;0.10;;;26.70;99.90;;;;;;5019183;28;21716;-76
2022/07/12 09:38:39;;;;;;;0.30;0.10;;;26.60;99.90;;;;;;5013172;28;20103;-77
2022/07/12 09:41:08;;;;;;;1.40;0.20;;;26.70;99.90;;;;;;5026507;28;22389;-75
2022/07/12 09:43:34;;;;;;;2.17;0.20;;;27.20;99.90;;;;;;5001051;28;20029;-76
2022/07/12 09:46:00;;;;;;;0.80;0.30;;;27.30;99.90;;;;;;5019180;28;20069;-76
2022/07/12 09:48:28;;;;;;;0.47;0.20;;;27.30;99.90;;;;;;5017098;28;20550;-75
2022/07/12 09:50:57;;;;;;;0.88;0.25;;;27.30;99.90;;;;;;5016808;28;20040;-76
2022/07/12 09:53:29;;;;;;;1.30;0.20;;;27.00;99.90;;;;;;5016096;28;20057;-75
2022/07/12 09:55:55;;;;;;;0.93;0.30;;;28.10;99.90;;;;;;5026878;28;20029;-76
2022/07/12 09:58:25;;;;;;;0.73;0.20;;;27.70;99.90;;;;;;5012446;28;20124;-76
2022/07/12 10:00:53;;;;;;;0.60;0.20;;;27.50;99.90;;;;;;5016267;28;20441;-77
2022/07/12 10:03:25;;;;;;;0.30;0.10;;;27.80;99.90;;;;;;5019501;28;20036;-75
2022/07/12 10:05:52;;;;;;;0.80;0.20;;;28.20;99.90;;;;;;5017820;28;20088;-76
2022/07/12 10:08:20;;;;;;;0.40;0.10;;;27.10;99.90;;;;;;5016834;28;20107;-76
2022/07/12 10:10:47;;;;;;;1.08;0.10;;;27.50;99.90;;;;;;5016985;28;20144;-76
2022/07/12 10:13:13;;;;;;;0.32;0.10;;;28.20;99.90;;;;;;4992287;28;20030;-76
2022/07/12 10:15:43;;;;;;;2.00;0.13;;;28.20;99.90;;;;;;5016951;28;20045;-75
2022/07/12 10:18:18;;;;;;;0.50;0.10;;;28.50;99.90;;;;;;5016224;28;20021;-75
2022/07/12 10:20:46;;;;;;;0.60;0.17;;;28.00;99.90;;;;;;5019353;28;20156;-76
2022/07/12 10:23:36;;;;;;;0.82;0.10;;;28.00;99.90;;;;;;4994031;28;20033;-75
2022/07/12 10:26:26;;;;;;;0.40;0.13;;;28.60;99.90;;;;;;5017444;28;20473;-75
2022/07/12 10:28:56;;;;;;;0.82;0.00;;;28.30;99.90;;;;;;5001100;28;20039;-76
2022/07/12 10:31:32;;;;;;;0.20;0.10;;;29.10;99.90;;;;;;5025245;28;20723;-76
2022/07/12 10:34:24;;;;;;;0.77;0.10;;;29.00;99.90;;;;;;5012676;28;20033;-76
2022/07/12 10:36:55;;;;;;;0.77;0.10;;;29.00;99.90;;;;;;4994819;28;20056;-75
2022/07/12 10:39:30;;;;;;;0.45;0.10;;;28.30;99.90;;;;;;5012997;28;20069;-75
2022/07/12 10:42:05;;;;;;;0.28;0.10;;;28.40;99.90;;;;;;5026341;28;20174;-75
2022/07/12 10:44:37;;;;;;;0.30;0.10;;;28.20;99.90;;;;;;5001648;28;20037;-75
2022/07/12 10:47:04;;;;;;;0.45;0.10;;;27.40;99.90;;;;;;5016450;28;20065;-75
2022/07/12 10:49:31;;;;;;;0.38;0.00;;;28.50;99.90;;;;;;5016614;28;20029;-76
2022/07/12 10:52:27;;;;;;;0.40;0.10;;;28.40;99.90;;;;;;5016091;28;20038;-75
2022/07/12 10:54:55;;;;;;;0.30;0.10;;;27.70;99.90;;;;;;5016046;28;20167;-75
2022/07/12 10:57:42;;;;;;;0.30;0.10;;;27.80;99.90;;;;;;5016860;28;20029;-75
2022/07/12 11:00:12;;;;;;;0.20;0.10;;;28.20;99.90;;;;;;5017964;28;20037;-76
2022/07/12 11:02:38;;;;;;;0.20;0.10;;;28.90;99.90;;;;;;5018223;28;20029;-75
2022/07/12 11:05:04;;;;;;;0.43;0.10;;;28.90;99.90;;;;;;5022218;28;20578;-75
2022/07/12 11:07:31;;;;;;;0.20;0.10;;;28.00;99.90;;;;;;5015090;28;20094;-75
2022/07/12 11:09:56;;;;;;;0.10;0.00;;;28.80;99.90;;;;;;4999791;28;20022;-75
2022/07/12 11:12:29;;;;;;;0.30;0.10;;;29.10;99.90;;;;;;5018730;28;20283;-75
2022/07/12 11:14:55;;;;;;;1.17;0.20;;;29.40;99.90;;;;;;5009085;28;20036;-75
2022/07/12 11:17:30;;;;;;;0.57;0.10;;;28.80;99.90;;;;;;5016812;28;20536;-75
2022/07/12 11:20:10;;;;;;;1.00;0.10;;;28.20;99.90;;;;;;5017967;28;20034;-75
2022/07/12 11:22:41;;;;;;;0.50;0.10;;;27.40;99.90;;;;;;4999069;28;20036;-75
2022/07/12 11:25:09;;;;;;;0.30;0.10;;;27.50;99.90;;;;;;5020552;28;20111;-76
2022/07/12 11:27:35;;;;;;;1.25;0.10;;;27.10;99.90;;;;;;5019804;28;20045;-75
2022/07/12 11:30:05;;;;;;;1.00;0.10;;;27.00;99.90;;;;;;5021061;28;20037;-76
2022/07/12 11:32:41;;;;;;;1.05;0.10;;;27.60;99.90;;;;;;4998376;28;20037;-76
2022/07/12 11:35:24;;;;;;;0.52;0.20;;;28.00;99.90;;;;;;5019480;28;20030;-75
2022/07/12 11:37:55;;;;;;;0.20;0.03;;;27.80;99.90;;;;;;5020433;28;20129;-76
2022/07/12 11:40:30;;;;;;;0.80;0.10;;;28.90;99.90;;;;;;5031245;28;20071;-76
2022/07/12 11:42:58;;;;;;;0.03;0.00;;;29.50;99.90;;;;;;5019809;28;20396;-75
2022/07/12 11:45:24;;;;;;;0.73;0.20;;;29.20;99.90;;;;;;5021578;28;20394;-75
2022/07/12 11:47:50;;;;;;;0.50;0.20;;;27.80;99.90;;;;;;5019295;28;20072;-76
2022/07/12 11:50:18;;;;;;;0.50;0.10;;;27.40;99.90;;;;;;5019413;28;20341;-76
2022/07/12 11:52:44;;;;;;;0.82;0.13;;;27.40;99.90;;;;;;5021184;28;20041;-76
2022/07/12 11:55:10;;;;;;;0.98;0.10;;;27.80;99.90;;;;;;5018712;28;20031;-76
2022/07/12 11:57:35;;;;;;;0.20;0.05;;;28.30;99.90;;;;;;5018550;28;20484;-75
2022/07/12 12:00:17;;;;;;;0.13;0.10;;;28.60;99.90;;;;;;5019814;28;20032;-76
2022/07/12 12:02:42;;;;;;;1.15;0.20;;;27.70;99.90;;;;;;5019148;28;20025;-76
2022/07/12 12:05:09;;;;;;;0.30;0.10;;;27.80;99.90;;;;;;5020091;28;20433;-77
2022/07/12 12:07:34;;;;;;;0.85;0.10;;;27.40;99.90;;;;;;5021315;28;20052;-76
2022/07/12 12:10:04;;;;;;;1.88;0.10;;;27.80;99.90;;;;;;5011987;28;20030;-76
2022/07/12 12:12:45;;;;;;;2.28;0.10;;;27.50;99.90;;;;;;5012863;28;20269;-76
2022/07/12 12:15:16;;;;;;;0.70;0.17;;;27.70;99.90;;;;;;5021498;28;20037;-75
2022/07/12 12:17:50;;;;;;;0.22;0.10;;;27.20;99.90;;;;;;5018818;28;20546;-75
2022/07/12 12:20:30;;;;;;;0.40;0.10;;;27.80;99.90;;;;;;5002974;28;20055;-76
2022/07/12 12:23:00;;;;;;;0.10;0.10;;;27.50;99.90;;;;;;5018239;28;20040;-76
2022/07/12 12:25:28;;;;;;;0.63;0.10;;;28.20;99.90;;;;;;5013090;28;20431;-76
2022/07/12 12:28:02;;;;;;;0.50;0.10;;;29.10;99.90;;;;;;5011936;28;20095;-76
2022/07/12 12:30:34;;;;;;;0.30;0.10;;;28.20;99.90;;;;;;5028447;28;20029;-76
2022/07/12 12:33:02;;;;;;;0.80;0.10;;;28.20;99.90;;;;;;5019303;28;20017;-77
2022/07/12 12:35:36;;;;;;;0.75;0.20;;;28.30;99.90;;;;;;5013498;28;20029;-77
2022/07/12 12:38:10;;;;;;;0.20;0.10;;;27.80;99.90;;;;;;5018363;28;20045;-75
2022/07/12 12:40:37;;;;;;;0.60;0.10;;;28.50;99.90;;;;;;5001498;28;20035;-76
2022/07/12 12:43:07;;;;;;;1.40;0.10;;;28.60;99.90;;;;;;5019727;28;20034;-76
2022/07/12 12:45:34;;;;;;;0.88;0.10;;;28.50;99.90;;;;;;5014057;28;20049;-76
2022/07/12 12:48:02;;;;;;;0.17;0.10;;;28.50;99.90;;;;;;5010588;28;20575;-76
2022/07/12 12:50:38;;;;;;;0.30;0.10;;;29.00;99.90;;;;;;5018872;28;20477;-76
2022/07/12 12:53:10;;;;;;;0.35;0.20;;;28.70;99.90;;;;;;5017313;28;20041;-76
2022/07/12 12:55:36;;;;;;;1.20;0.20;;;28.60;99.90;;;;;;5034504;28;20505;-75
2022/07/12 12:58:02;;;;;;;0.95;0.10;;;28.80;99.90;;;;;;5019555;28;20021;-76
2022/07/12 13:00:29;;;;;;;0.85;0.10;;;28.70;99.90;;;;;;5001413;28;20478;-75
2022/07/12 13:02:58;;;;;;;0.63;0.10;;;28.50;99.90;;;;;;5011592;28;20076;-76